sensor_id;sensor_type;location;lat;lon;timestamp;pressure;altitude;pressure_sealevel;temperature;humidity
7660;BME280;3872;47.902;8.162;2023-07-09T00:02:12;92508.69;;;20.40;87.80
7660;BME280;3872;47.902;8.162;2023-07-09T00:04:40;92511.16;;;20.33;87.08
7660;BME280;3872;47.902;8.162;2023-07-09T00:07:13;92518.31;;;20.05;93.50
7660;BME280;3872;47.902;8.162;2023-07-09T00:09:41;92515.56;;;19.77;97.25
7660;BME280;3872;47.902;8.162;2023-07-09T00:12:12;92513.84;;;20.21;90.08
7660;BME280;3872;47.902;8.162;2023-07-09T00:14:39;92516.84;;;20.31;89.47
7660;BME280;3872;47.902;8.162;2023-07-09T00:17:10;92522.06;;;20.28;88.74
7660;BME280;3872;47.902;8.162;2023-07-09T00:19:37;92515.59;;;20.41;85.37
7660;BME280;3872;47.902;8.162;2023-07-09T00:22:13;92518.03;;;20.46;85.40
7660;BME280;3872;47.902;8.162;2023-07-09T00:24:41;92516.59;;;20.49;85.14
7660;BME280;3872;47.902;8.162;2023-07-09T00:27:09;92517.53;;;20.16;86.90
7660;BME280;3872;47.902;8.162;2023-07-09T00:29:36;92512.31;;;20.08;86.31
7660;BME280;3872;47.902;8.162;2023-07-09T00:32:03;92513.75;;;20.17;86.05
7660;BME280;3872;47.902;8.162;2023-07-09T00:34:31;92515.06;;;20.23;85.60
7660;BME280;3872;47.902;8.162;2023-07-09T00:36:57;92518.56;;;19.63;91.96
7660;BME280;3872;47.902;8.162;2023-07-09T00:39:24;92518.78;;;19.94;88.79
7660;BME280;3872;47.902;8.162;2023-07-09T00:41:53;92521.41;;;20.31;85.42
7660;BME280;3872;47.902;8.162;2023-07-09T00:44:26;92524.34;;;19.77;93.21
7660;BME280;3872;47.902;8.162;2023-07-09T00:47:19;92520.34;;;19.96;92.41
7660;BME280;3872;47.902;8.162;2023-07-09T00:49:56;92521.06;;;20.32;86.17
7660;BME280;3872;47.902;8.162;2023-07-09T00:52:28;92522.78;;;20.01;83.47
7660;BME280;3872;47.902;8.162;2023-07-09T00:55:04;92525.03;;;19.74;89.97
7660;BME280;3872;47.902;8.162;2023-07-09T00:57:32;92519.91;;;19.81;88.81
7660;BME280;3872;47.902;8.162;2023-07-09T01:00:03;92527.56;;;19.71;88.31
7660;BME280;3872;47.902;8.162;2023-07-09T01:02:36;92531.00;;;19.47;91.74
7660;BME280;3872;47.902;8.162;2023-07-09T01:05:04;92530.81;;;19.52;93.88
7660;BME280;3872;47.902;8.162;2023-07-09T01:07:31;92530.03;;;19.18;94.42
7660;BME280;3872;47.902;8.162;2023-07-09T01:09:58;92526.44;;;19.02;94.56
7660;BME280;3872;47.902;8.162;2023-07-09T01:12:25;92523.97;;;18.64;100.00
7660;BME280;3872;47.902;8.162;2023-07-09T01:14:53;92529.22;;;18.52;100.00
7660;BME280;3872;47.902;8.162;2023-07-09T01:17:25;92524.31;;;18.96;100.00
7660;BME280;3872;47.902;8.162;2023-07-09T01:19:54;92534.50;;;19.27;96.05
7660;BME280;3872;47.902;8.162;2023-07-09T01:22:23;92528.25;;;19.10;97.92
7660;BME280;3872;47.902;8.162;2023-07-09T01:24:53;92522.78;;;19.07;99.03
7660;BME280;3872;47.902;8.162;2023-07-09T01:27:22;92518.88;;;19.04;96.98
7660;BME280;3872;47.902;8.162;2023-07-09T01:29:49;92521.13;;;19.02;99.48
7660;BME280;3872;47.902;8.162;2023-07-09T01:32:16;92517.66;;;19.02;98.00
7660;BME280;3872;47.902;8.162;2023-07-09T01:34:44;92519.31;;;18.94;96.59
7660;BME280;3872;47.902;8.162;2023-07-09T01:37:14;92520.50;;;18.85;97.40
7660;BME280;3872;47.902;8.162;2023-07-09T01:39:42;92524.44;;;18.66;99.27
7660;BME280;3872;47.902;8.162;2023-07-09T01:42:10;92523.66;;;18.66;100.00
7660;BME280;3872;47.902;8.162;2023-07-09T01:44:38;92525.84;;;18.64;100.00
7660;BME280;3872;47.902;8.162;2023-07-09T01:47:05;92526.03;;;18.80;98.87
7660;BME280;3872;47.902;8.162;2023-07-09T01:49:32;92516.78;;;18.77;99.47
7660;BME280;3872;47.902;8.162;2023-07-09T01:52:00;92514.47;;;18.75;96.71
7660;BME280;3872;47.902;8.162;2023-07-09T01:54:29;92517.31;;;18.70;99.24
7660;BME280;3872;47.902;8.162;2023-07-09T01:57:13;92512.78;;;18.50;100.00
7660;BME280;3872;47.902;8.162;2023-07-09T01:59:41;92514.03;;;18.53;100.00
7660;BME280;3872;47.902;8.162;2023-07-09T02:02:09;92517.13;;;18.55;100.00
7660;BME280;3872;47.902;8.162;2023-07-09T02:04:40;92514.59;;;18.37;100.00
7660;BME280;3872;47.902;8.162;2023-07-09T02:07:08;92511.66;;;18.51;100.00
7660;BME280;3872;47.902;8.162;2023-07-09T02:09:35;92522.06;;;18.03;100.00
7660;BME280;3872;47.902;8.162;2023-07-09T02:12:03;92522.44;;;17.92;100.00
7660;BME280;3872;47.902;8.162;2023-07-09T02:14:30;92524.09;;;18.47;100.00
7660;BME280;3872;47.902;8.162;2023-07-09T02:16:57;92521.31;;;18.64;100.00
7660;BME280;3872;47.902;8.162;2023-07-09T02:19:24;92524.34;;;18.33;100.00
7660;BME280;3872;47.902;8.162;2023-07-09T02:21:50;92525.09;;;17.92;100.00
7660;BME280;3872;47.902;8.162;2023-07-09T02:24:17;92528.22;;;17.65;100.00
7660;BME280;3872;47.902;8.162;2023-07-09T02:26:43;92530.47;;;17.84;100.00
7660;BME280;3872;47.902;8.162;2023-07-09T02:29:11;92527.94;;;17.87;100.00
7660;BME280;3872;47.902;8.162;2023-07-09T02:31:38;92530.69;;;17.99;100.00
7660;BME280;3872;47.902;8.162;2023-07-09T02:34:06;92530.47;;;17.84;100.00
7660;BME280;3872;47.902;8.162;2023-07-09T02:36:32;92531.47;;;17.71;100.00
7660;BME280;3872;47.902;8.162;2023-07-09T02:38:59;92521.59;;;17.71;100.00
7660;BME280;3872;47.902;8.162;2023-07-09T02:41:25;92526.50;;;17.60;100.00
7660;BME280;3872;47.902;8.162;2023-07-09T02:43:52;92532.13;;;17.59;100.00
7660;BME280;3872;47.902;8.162;2023-07-09T02:46:20;92540.66;;;17.44;100.00
7660;BME280;3872;47.902;8.162;2023-07-09T02:48:47;92527.44;;;17.65;100.00
7660;BME280;3872;47.902;8.162;2023-07-09T02:51:15;92535.63;;;17.42;100.00
7660;BME280;3872;47.902;8.162;2023-07-09T02:53:42;92536.38;;;17.60;100.00
7660;BME280;3872;47.902;8.162;2023-07-09T02:56:08;92534.50;;;17.52;100.00
7660;BME280;3872;47.902;8.162;2023-07-09T02:58:35;92535.63;;;17.89;100.00
7660;BME280;3872;47.902;8.162;2023-07-09T03:01:01;92539.88;;;18.11;100.00
7660;BME280;3872;47.902;8.162;2023-07-09T03:03:32;92539.94;;;18.23;100.00
7660;BME280;3872;47.902;8.162;2023-07-09T03:05:58;92535.44;;;17.94;100.00
7660;BME280;3872;47.902;8.162;2023-07-09T03:08:25;92545.06;;;17.78;100.00
7660;BME280;3872;47.902;8.162;2023-07-09T03:10:51;92543.06;;;17.75;100.00
7660;BME280;3872;47.902;8.162;2023-07-09T03:13:18;92541.50;;;17.74;100.00
7660;BME280;3872;47.902;8.162;2023-07-09T03:15:53;92543.22;;;17.70;100.00
7660;BME280;3872;47.902;8.162;2023-07-09T03:18:20;92549.06;;;17.54;100.00
7660;BME280;3872;47.902;8.162;2023-07-09T03:20:48;92550.47;;;17.52;100.00
7660;BME280;3872;47.902;8.162;2023-07-09T03:23:15;92549.53;;;17.48;100.00
7660;BME280;3872;47.902;8.162;2023-07-09T03:25:41;92555.81;;;17.52;100.00
7660;BME280;3872;47.902;8.162;2023-07-09T03:28:08;92552.63;;;17.58;100.00
7660;BME280;3872;47.902;8.162;2023-07-09T03:30:34;92549.38;;;17.53;100.00
7660;BME280;3872;47.902;8.162;2023-07-09T03:33:01;92547.72;;;17.40;100.00
7660;BME280;3872;47.902;8.162;2023-07-09T03:35:29;92552.41;;;17.34;100.00
7660;BME280;3872;47.902;8.162;2023-07-09T03:37:57;92556.81;;;17.30;100.00
7660;BME280;3872;47.902;8.162;2023-07-09T03:40:24;92551.97;;;17.32;100.00
7660;BME280;3872;47.902;8.162;2023-07-09T03:42:50;92549.94;;;17.20;100.00
7660;BME280;3872;47.902;8.162;2023-07-09T03:45:17;92555.34;;;17.41;100.00
7660;BME280;3872;47.902;8.162;2023-07-09T03:47:43;92545.06;;;17.40;100.00
7660;BME280;3872;47.902;8.162;2023-07-09T03:50:10;92549.16;;;17.29;100.00
7660;BME280;3872;47.902;8.162;2023-07-09T03:52:37;92555.44;;;17.24;100.00
7660;BME280;3872;47.902;8.162;2023-07-09T03:55:06;92557.72;;;17.43;100.00
7660;BME280;3872;47.902;8.162;2023-07-09T03:57:33;92556.78;;;17.39;100.00
7660;BME280;3872;47.902;8.162;2023-07-09T04:00:01;92554.44;;;17.37;100.00
7660;BME280;3872;47.902;8.162;2023-07-09T04:02:41;92560.47;;;17.17;100.00
7660;BME280;3872;47.902;8.162;2023-07-09T04:05:09;92559.97;;;17.23;100.00
7660;BME280;3872;47.902;8.162;2023-07-09T04:07:36;92568.16;;;17.48;100.00
7660;BME280;3872;47.902;8.162;2023-07-09T04:10:05;92564.34;;;17.19;100.00
7660;BME280;3872;47.902;8.162;2023-07-09T04:12:32;92568.31;;;17.51;100.00
7660;BME280;3872;47.902;8.162;2023-07-09T04:15:00;92560.81;;;17.53;100.00
7660;BME280;3872;47.902;8.162;2023-07-09T04:17:26;92561.63;;;17.45;100.00
7660;BME280;3872;47.902;8.162;2023-07-09T04:19:53;92557.81;;;17.55;100.00
7660;BME280;3872;47.902;8.162;2023-07-09T04:22:19;92562.25;;;17.34;100.00
7660;BME280;3872;47.902;8.162;2023-07-09T04:24:46;92564.03;;;17.12;100.00
7660;BME280;3872;47.902;8.162;2023-07-09T04:27:14;92577.53;;;16.99;100.00
7660;BME280;3872;47.902;8.162;2023-07-09T04:29:41;92578.50;;;16.77;100.00
7660;BME280;3872;47.902;8.162;2023-07-09T04:32:12;92577.66;;;17.75;100.00
7660;BME280;3872;47.902;8.162;2023-07-09T04:34:39;92574.56;;;17.55;100.00
7660;BME280;3872;47.902;8.162;2023-07-09T04:37:06;92573.06;;;17.84;100.00
7660;BME280;3872;47.902;8.162;2023-07-09T04:39:33;92574.56;;;17.64;100.00
7660;BME280;3872;47.902;8.162;2023-07-09T04:41:59;92565.16;;;17.67;100.00
7660;BME280;3872;47.902;8.162;2023-07-09T04:44:29;92565.34;;;18.20;100.00
7660;BME280;3872;47.902;8.162;2023-07-09T04:46:56;92563.69;;;17.78;100.00
7660;BME280;3872;47.902;8.162;2023-07-09T04:49:22;92561.63;;;18.13;100.00
7660;BME280;3872;47.902;8.162;2023-07-09T04:51:49;92568.66;;;17.41;100.00
7660;BME280;3872;47.902;8.162;2023-07-09T04:54:15;92565.84;;;17.84;100.00
7660;BME280;3872;47.902;8.162;2023-07-09T04:56:42;92566.78;;;18.18;100.00
7660;BME280;3872;47.902;8.162;2023-07-09T04:59:10;92564.50;;;18.49;100.00
7660;BME280;3872;47.902;8.162;2023-07-09T05:01:37;92560.13;;;18.74;100.00
7660;BME280;3872;47.902;8.162;2023-07-09T05:04:04;92564.66;;;18.94;100.00
7660;BME280;3872;47.902;8.162;2023-07-09T05:06:32;92564.34;;;19.08;99.01
7660;BME280;3872;47.902;8.162;2023-07-09T05:08:58;92565.63;;;18.90;100.00
7660;BME280;3872;47.902;8.162;2023-07-09T05:11:25;92565.06;;;18.63;100.00
7660;BME280;3872;47.902;8.162;2023-07-09T05:13:51;92563.03;;;18.39;100.00
7660;BME280;3872;47.902;8.162;2023-07-09T05:16:18;92563.34;;;18.38;100.00
7660;BME280;3872;47.902;8.162;2023-07-09T05:18:46;92556.94;;;19.13;100.00
7660;BME280;3872;47.902;8.162;2023-07-09T05:21:12;92567.44;;;19.43;100.00
7660;BME280;3872;47.902;8.162;2023-07-09T05:23:39;92555.72;;;19.92;98.10
7660;BME280;3872;47.902;8.162;2023-07-09T05:26:06;92556.75;;;19.88;98.46
7660;BME280;3872;47.902;8.162;2023-07-09T05:28:33;92560.38;;;20.32;95.25
7660;BME280;3872;47.902;8.162;2023-07-09T05:31:00;92549.66;;;20.56;93.30
7660;BME280;3872;47.902;8.162;2023-07-09T05:33:26;92559.16;;;20.42;94.49
7660;BME280;3872;47.902;8.162;2023-07-09T05:35:54;92557.47;;;20.25;100.00
7660;BME280;3872;47.902;8.162;2023-07-09T05:38:21;92557.41;;;20.09;100.00
7660;BME280;3872;47.902;8.162;2023-07-09T05:40:48;92557.47;;;20.49;98.87
7660;BME280;3872;47.902;8.162;2023-07-09T05:43:14;92550.66;;;20.92;95.88
7660;BME280;3872;47.902;8.162;2023-07-09T05:45:41;92551.75;;;21.31;89.32
7660;BME280;3872;47.902;8.162;2023-07-09T05:48:07;92542.94;;;21.30;86.27
7660;BME280;3872;47.902;8.162;2023-07-09T05:50:34;92543.75;;;21.19;87.40
7660;BME280;3872;47.902;8.162;2023-07-09T05:53:02;92546.09;;;20.92;96.44
7660;BME280;3872;47.902;8.162;2023-07-09T05:55:29;92540.22;;;20.87;100.00
7660;BME280;3872;47.902;8.162;2023-07-09T05:57:55;92540.78;;;21.08;94.75
7660;BME280;3872;47.902;8.162;2023-07-09T06:00:22;92541.66;;;21.56;88.77
7660;BME280;3872;47.902;8.162;2023-07-09T06:02:49;92552.97;;;22.27;81.51
7660;BME280;3872;47.902;8.162;2023-07-09T06:05:15;92546.34;;;22.41;79.91
7660;BME280;3872;47.902;8.162;2023-07-09T06:07:42;92553.09;;;22.15;81.19
7660;BME280;3872;47.902;8.162;2023-07-09T06:10:10;92547.97;;;22.45;79.28
7660;BME280;3872;47.902;8.162;2023-07-09T06:12:36;92543.75;;;22.79;76.40
7660;BME280;3872;47.902;8.162;2023-07-09T06:15:04;92545.47;;;22.87;75.58
7660;BME280;3872;47.902;8.162;2023-07-09T06:17:30;92546.84;;;22.81;77.83
7660;BME280;3872;47.902;8.162;2023-07-09T06:19:57;92559.03;;;21.93;85.11
7660;BME280;3872;47.902;8.162;2023-07-09T06:22:23;92552.50;;;22.41;75.18
7660;BME280;3872;47.902;8.162;2023-07-09T06:24:50;92549.50;;;22.62;71.13
7660;BME280;3872;47.902;8.162;2023-07-09T06:27:18;92538.09;;;23.03;72.87
7660;BME280;3872;47.902;8.162;2023-07-09T06:29:44;92544.16;;;23.20;74.80
7660;BME280;3872;47.902;8.162;2023-07-09T06:32:11;92546.84;;;23.20;73.83
7660;BME280;3872;47.902;8.162;2023-07-09T06:34:37;92548.91;;;23.26;76.46
7660;BME280;3872;47.902;8.162;2023-07-09T06:37:04;92540.97;;;23.98;70.75
7660;BME280;3872;47.902;8.162;2023-07-09T06:39:31;92544.97;;;24.08;67.97
7660;BME280;3872;47.902;8.162;2023-07-09T06:41:57;92535.91;;;24.72;62.95
7660;BME280;3872;47.902;8.162;2023-07-09T06:44:54;92542.97;;;24.84;62.42
7660;BME280;3872;47.902;8.162;2023-07-09T06:47:21;92536.81;;;24.83;60.76
7660;BME280;3872;47.902;8.162;2023-07-09T06:49:48;92539.75;;;25.01;61.61
7660;BME280;3872;47.902;8.162;2023-07-09T06:52:14;92535.59;;;25.07;62.41
7660;BME280;3872;47.902;8.162;2023-07-09T06:54:41;92536.28;;;25.34;60.51
7660;BME280;3872;47.902;8.162;2023-07-09T06:57:07;92530.13;;;25.37;60.12
7660;BME280;3872;47.902;8.162;2023-07-09T06:59:34;92530.25;;;25.48;60.06
7660;BME280;3872;47.902;8.162;2023-07-09T07:02:02;92528.72;;;25.87;58.88
7660;BME280;3872;47.902;8.162;2023-07-09T07:04:29;92526.09;;;25.94;56.76
7660;BME280;3872;47.902;8.162;2023-07-09T07:06:55;92533.63;;;25.74;58.47
7660;BME280;3872;47.902;8.162;2023-07-09T07:09:22;92527.84;;;26.24;56.04
7660;BME280;3872;47.902;8.162;2023-07-09T07:11:49;92532.19;;;26.32;56.65
7660;BME280;3872;47.902;8.162;2023-07-09T07:14:15;92526.56;;;26.55;55.57
7660;BME280;3872;47.902;8.162;2023-07-09T07:16:42;92517.31;;;26.59;54.82
7660;BME280;3872;47.902;8.162;2023-07-09T07:19:10;92515.66;;;27.06;56.74
7660;BME280;3872;47.902;8.162;2023-07-09T07:21:36;92511.03;;;27.13;55.86
7660;BME280;3872;47.902;8.162;2023-07-09T07:24:04;92511.50;;;26.54;59.18
7660;BME280;3872;47.902;8.162;2023-07-09T07:26:30;92505.63;;;27.10;58.41
7660;BME280;3872;47.902;8.162;2023-07-09T07:28:57;92497.53;;;27.17;57.81
7660;BME280;3872;47.902;8.162;2023-07-09T07:31:23;92497.28;;;27.86;55.82
7660;BME280;3872;47.902;8.162;2023-07-09T07:33:50;92501.56;;;27.83;59.90
7660;BME280;3872;47.902;8.162;2023-07-09T07:36:18;92501.19;;;28.27;57.15
7660;BME280;3872;47.902;8.162;2023-07-09T07:38:45;92498.88;;;28.26;60.70
7660;BME280;3872;47.902;8.162;2023-07-09T07:41:12;92497.50;;;29.12;55.53
7660;BME280;3872;47.902;8.162;2023-07-09T07:43:38;92500.19;;;29.19;55.89
7660;BME280;3872;47.902;8.162;2023-07-09T07:46:06;92489.34;;;29.19;56.49
7660;BME280;3872;47.902;8.162;2023-07-09T07:48:32;92494.19;;;29.59;53.98
7660;BME280;3872;47.902;8.162;2023-07-09T07:50:59;92493.53;;;29.31;59.29
7660;BME280;3872;47.902;8.162;2023-07-09T07:53:28;92500.81;;;30.58;52.22
7660;BME280;3872;47.902;8.162;2023-07-09T07:55:55;92487.81;;;30.77;51.06
7660;BME280;3872;47.902;8.162;2023-07-09T07:58:22;92492.16;;;30.26;52.25
7660;BME280;3872;47.902;8.162;2023-07-09T08:00:49;92493.41;;;30.96;45.45
7660;BME280;3872;47.902;8.162;2023-07-09T08:03:16;92494.28;;;30.52;44.79
7660;BME280;3872;47.902;8.162;2023-07-09T08:05:42;92500.88;;;30.51;41.45
7660;BME280;3872;47.902;8.162;2023-07-09T08:08:09;92505.72;;;30.70;41.92
7660;BME280;3872;47.902;8.162;2023-07-09T08:10:38;92509.81;;;30.00;43.29
7660;BME280;3872;47.902;8.162;2023-07-09T08:13:04;92498.25;;;30.82;40.82
7660;BME280;3872;47.902;8.162;2023-07-09T08:15:31;92507.25;;;28.95;45.42
7660;BME280;3872;47.902;8.162;2023-07-09T08:17:57;92501.00;;;30.78;44.11
7660;BME280;3872;47.902;8.162;2023-07-09T08:20:24;92494.00;;;31.45;40.79
7660;BME280;3872;47.902;8.162;2023-07-09T08:22:50;92490.75;;;32.11;37.84
7660;BME280;3872;47.902;8.162;2023-07-09T08:25:17;92495.59;;;31.12;39.07
7660;BME280;3872;47.902;8.162;2023-07-09T08:27:45;92491.13;;;31.56;39.33
7660;BME280;3872;47.902;8.162;2023-07-09T08:30:12;92496.69;;;32.52;37.93
7660;BME280;3872;47.902;8.162;2023-07-09T08:32:39;92495.53;;;32.03;37.65
7660;BME280;3872;47.902;8.162;2023-07-09T08:35:05;92496.41;;;31.97;36.99
7660;BME280;3872;47.902;8.162;2023-07-09T08:37:32;92496.09;;;31.91;39.99
7660;BME280;3872;47.902;8.162;2023-07-09T08:39:59;92495.91;;;32.28;38.49
7660;BME280;3872;47.902;8.162;2023-07-09T08:42:29;92506.88;;;32.72;37.48
7660;BME280;3872;47.902;8.162;2023-07-09T08:45:15;92500.94;;;31.80;36.73
7660;BME280;3872;47.902;8.162;2023-07-09T08:47:52;92499.13;;;31.97;37.50
7660;BME280;3872;47.902;8.162;2023-07-09T08:50:24;92500.91;;;33.20;35.51
7660;BME280;3872;47.902;8.162;2023-07-09T08:52:56;92506.97;;;32.88;35.36
7660;BME280;3872;47.902;8.162;2023-07-09T08:55:27;92511.88;;;33.16;35.56
7660;BME280;3872;47.902;8.162;2023-07-09T08:57:58;92513.34;;;32.81;33.46
7660;BME280;3872;47.902;8.162;2023-07-09T09:00:30;92508.03;;;33.33;36.07
7660;BME280;3872;47.902;8.162;2023-07-09T09:02:59;92507.22;;;32.50;34.53
7660;BME280;3872;47.902;8.162;2023-07-09T09:05:26;92510.47;;;32.65;36.92
7660;BME280;3872;47.902;8.162;2023-07-09T09:07:56;92513.25;;;33.04;33.77
7660;BME280;3872;47.902;8.162;2023-07-09T09:10:29;92509.63;;;33.11;34.03
7660;BME280;3872;47.902;8.162;2023-07-09T09:13:08;92513.78;;;32.76;33.40
7660;BME280;3872;47.902;8.162;2023-07-09T09:15:39;92511.53;;;33.54;33.02
7660;BME280;3872;47.902;8.162;2023-07-09T09:18:29;92509.41;;;32.59;34.38
7660;BME280;3872;47.902;8.162;2023-07-09T09:21:03;92503.88;;;32.62;33.63
7660;BME280;3872;47.902;8.162;2023-07-09T09:23:44;92496.56;;;33.42;32.02
7660;BME280;3872;47.902;8.162;2023-07-09T09:26:17;92486.06;;;34.12;32.31
7660;BME280;3872;47.902;8.162;2023-07-09T09:28:44;92478.69;;;35.03;31.38
7660;BME280;3872;47.902;8.162;2023-07-09T09:31:12;92483.31;;;34.12;32.13
7660;BME280;3872;47.902;8.162;2023-07-09T09:33:41;92486.66;;;33.88;32.69
7660;BME280;3872;47.902;8.162;2023-07-09T09:36:14;92486.38;;;33.62;34.33
7660;BME280;3872;47.902;8.162;2023-07-09T09:38:42;92488.88;;;31.81;34.97
7660;BME280;3872;47.902;8.162;2023-07-09T09:41:13;92485.03;;;33.34;34.45
7660;BME280;3872;47.902;8.162;2023-07-09T09:43:42;92476.88;;;34.84;31.71
7660;BME280;3872;47.902;8.162;2023-07-09T09:46:09;92471.03;;;34.98;33.29
7660;BME280;3872;47.902;8.162;2023-07-09T09:48:37;92482.91;;;35.62;31.37
7660;BME280;3872;47.902;8.162;2023-07-09T09:51:04;92480.41;;;35.67;30.34
7660;BME280;3872;47.902;8.162;2023-07-09T09:53:38;92493.66;;;35.69;27.83
7660;BME280;3872;47.902;8.162;2023-07-09T09:56:06;92483.84;;;36.22;28.19
7660;BME280;3872;47.902;8.162;2023-07-09T09:58:40;92491.53;;;36.02;28.11
7660;BME280;3872;47.902;8.162;2023-07-09T10:01:14;92489.97;;;35.88;28.83
7660;BME280;3872;47.902;8.162;2023-07-09T10:03:43;92487.28;;;36.61;27.39
7660;BME280;3872;47.902;8.162;2023-07-09T10:06:15;92484.00;;;37.00;28.18
7660;BME280;3872;47.902;8.162;2023-07-09T10:08:52;92484.34;;;37.46;27.54
7660;BME280;3872;47.902;8.162;2023-07-09T10:11:26;92484.66;;;37.26;27.30
7660;BME280;3872;47.902;8.162;2023-07-09T10:14:01;92483.84;;;37.91;25.24
7660;BME280;3872;47.902;8.162;2023-07-09T10:16:34;92490.47;;;37.50;26.55
7660;BME280;3872;47.902;8.162;2023-07-09T10:19:12;92494.47;;;36.33;24.99
7660;BME280;3872;47.902;8.162;2023-07-09T10:21:45;92486.63;;;35.68;27.76
7660;BME280;3872;47.902;8.162;2023-07-09T10:24:25;92485.56;;;35.65;27.90
7660;BME280;3872;47.902;8.162;2023-07-09T10:27:02;92487.56;;;35.90;27.71
7660;BME280;3872;47.902;8.162;2023-07-09T10:29:42;92480.88;;;36.29;27.65
7660;BME280;3872;47.902;8.162;2023-07-09T10:32:23;92487.50;;;36.79;27.29
7660;BME280;3872;47.902;8.162;2023-07-09T10:34:58;92487.56;;;37.10;27.11
7660;BME280;3872;47.902;8.162;2023-07-09T10:37:49;92477.31;;;37.45;28.21
7660;BME280;3872;47.902;8.162;2023-07-09T10:40:31;92468.81;;;38.54;25.72
7660;BME280;3872;47.902;8.162;2023-07-09T10:43:11;92475.53;;;38.53;26.32
7660;BME280;3872;47.902;8.162;2023-07-09T10:45:42;92479.06;;;37.30;28.27
7660;BME280;3872;47.902;8.162;2023-07-09T10:48:14;92485.50;;;35.94;29.21
7660;BME280;3872;47.902;8.162;2023-07-09T10:50:46;92475.72;;;37.56;25.73
7660;BME280;3872;47.902;8.162;2023-07-09T10:53:28;92477.22;;;38.10;24.99
7660;BME280;3872;47.902;8.162;2023-07-09T10:55:59;92485.06;;;37.37;25.44
7660;BME280;3872;47.902;8.162;2023-07-09T10:58:33;92473.41;;;38.57;25.43
7660;BME280;3872;47.902;8.162;2023-07-09T11:01:02;92464.78;;;38.36;27.11
7660;BME280;3872;47.902;8.162;2023-07-09T11:03:36;92473.09;;;38.55;27.19
7660;BME280;3872;47.902;8.162;2023-07-09T11:06:04;92469.94;;;39.02;25.92
7660;BME280;3872;47.902;8.162;2023-07-09T11:08:38;92472.22;;;38.76;25.79
7660;BME280;3872;47.902;8.162;2023-07-09T11:11:09;92464.56;;;38.62;26.11
7660;BME280;3872;47.902;8.162;2023-07-09T11:13:41;92465.53;;;37.97;24.53
7660;BME280;3872;47.902;8.162;2023-07-09T11:16:12;92468.28;;;35.81;27.06
7660;BME280;3872;47.902;8.162;2023-07-09T11:18:40;92476.34;;;34.89;28.63
7660;BME280;3872;47.902;8.162;2023-07-09T11:21:14;92470.78;;;37.73;26.48
7660;BME280;3872;47.902;8.162;2023-07-09T11:23:45;92463.56;;;38.37;26.10
7660;BME280;3872;47.902;8.162;2023-07-09T11:26:14;92467.25;;;39.89;23.96
7660;BME280;3872;47.902;8.162;2023-07-09T11:28:47;92468.09;;;38.71;23.66
7660;BME280;3872;47.902;8.162;2023-07-09T11:31:21;92466.53;;;37.72;24.98
7660;BME280;3872;47.902;8.162;2023-07-09T11:33:58;92462.13;;;38.64;24.01
7660;BME280;3872;47.902;8.162;2023-07-09T11:36:27;92474.44;;;37.70;25.10
7660;BME280;3872;47.902;8.162;2023-07-09T11:38:54;92471.28;;;38.12;23.10
7660;BME280;3872;47.902;8.162;2023-07-09T11:41:36;92462.16;;;39.19;21.43
7660;BME280;3872;47.902;8.162;2023-07-09T11:44:12;92466.19;;;34.28;25.87
7660;BME280;3872;47.902;8.162;2023-07-09T11:46:50;92462.34;;;37.15;22.80
7660;BME280;3872;47.902;8.162;2023-07-09T11:49:19;92460.44;;;38.57;20.45
7660;BME280;3872;47.902;8.162;2023-07-09T11:51:52;92461.06;;;38.89;19.91
7660;BME280;3872;47.902;8.162;2023-07-09T11:54:20;92455.41;;;38.92;21.47
7660;BME280;3872;47.902;8.162;2023-07-09T11:56:54;92446.09;;;40.85;20.01
7660;BME280;3872;47.902;8.162;2023-07-09T11:59:22;92450.72;;;40.79;20.98
7660;BME280;3872;47.902;8.162;2023-07-09T12:01:50;92448.59;;;39.75;21.59
7660;BME280;3872;47.902;8.162;2023-07-09T12:04:21;92447.22;;;40.93;19.74
7660;BME280;3872;47.902;8.162;2023-07-09T12:06:48;92451.28;;;40.36;19.68
7660;BME280;3872;47.902;8.162;2023-07-09T12:09:17;92445.69;;;42.34;18.13
7660;BME280;3872;47.902;8.162;2023-07-09T12:11:46;92451.59;;;40.61;19.49
7660;BME280;3872;47.902;8.162;2023-07-09T12:14:15;92441.16;;;41.04;18.50
7660;BME280;3872;47.902;8.162;2023-07-09T12:16:45;92446.38;;;39.98;20.41
7660;BME280;3872;47.902;8.162;2023-07-09T12:19:15;92435.00;;;41.09;17.94
7660;BME280;3872;47.902;8.162;2023-07-09T12:21:44;92437.81;;;41.38;17.06
7660;BME280;3872;47.902;8.162;2023-07-09T12:24:18;92441.44;;;41.74;17.10
7660;BME280;3872;47.902;8.162;2023-07-09T12:26:47;92430.97;;;43.23;16.07
7660;BME280;3872;47.902;8.162;2023-07-09T12:29:14;92432.41;;;41.73;15.44
7660;BME280;3872;47.902;8.162;2023-07-09T12:31:41;92438.31;;;40.27;17.08
7660;BME280;3872;47.902;8.162;2023-07-09T12:34:12;92433.84;;;38.54;18.96
7660;BME280;3872;47.902;8.162;2023-07-09T12:36:43;92428.94;;;40.34;17.33
7660;BME280;3872;47.902;8.162;2023-07-09T12:39:12;92435.00;;;37.95;17.80
7660;BME280;3872;47.902;8.162;2023-07-09T12:41:40;92421.22;;;41.38;15.95
7660;BME280;3872;47.902;8.162;2023-07-09T12:44:15;92433.41;;;39.80;17.97
7660;BME280;3872;47.902;8.162;2023-07-09T12:46:43;92433.44;;;36.88;20.21
7660;BME280;3872;47.902;8.162;2023-07-09T12:49:21;92432.31;;;37.73;19.72
7660;BME280;3872;47.902;8.162;2023-07-09T12:51:48;92429.63;;;38.31;19.29
7660;BME280;3872;47.902;8.162;2023-07-09T12:54:17;92431.38;;;37.58;19.72
7660;BME280;3872;47.902;8.162;2023-07-09T12:56:44;92439.72;;;36.89;20.30
7660;BME280;3872;47.902;8.162;2023-07-09T12:59:20;92427.72;;;38.59;18.90
7660;BME280;3872;47.902;8.162;2023-07-09T13:01:55;92427.19;;;38.15;19.59
7660;BME280;3872;47.902;8.162;2023-07-09T13:04:27;92420.06;;;39.27;18.84
7660;BME280;3872;47.902;8.162;2023-07-09T13:06:54;92417.50;;;38.96;19.27
7660;BME280;3872;47.902;8.162;2023-07-09T13:09:25;92415.66;;;39.02;20.31
7660;BME280;3872;47.902;8.162;2023-07-09T13:11:53;92430.84;;;37.81;20.06
7660;BME280;3872;47.902;8.162;2023-07-09T13:14:22;92427.03;;;38.19;19.90
7660;BME280;3872;47.902;8.162;2023-07-09T13:16:48;92420.66;;;38.40;19.80
7660;BME280;3872;47.902;8.162;2023-07-09T13:19:15;92436.81;;;37.80;20.34
7660;BME280;3872;47.902;8.162;2023-07-09T13:21:44;92432.91;;;37.99;20.04
7660;BME280;3872;47.902;8.162;2023-07-09T13:24:19;92430.28;;;38.35;19.51
7660;BME280;3872;47.902;8.162;2023-07-09T13:26:47;92422.88;;;37.74;19.37
7660;BME280;3872;47.902;8.162;2023-07-09T13:29:15;92430.50;;;37.70;20.17
7660;BME280;3872;47.902;8.162;2023-07-09T13:31:43;92427.19;;;38.15;19.33